createdAt,value
2023-08-27T01:08:48.635Z,67.33
2023-08-27T01:13:56.870Z,67.50
2023-08-27T01:19:03.550Z,67.58
2023-08-27T01:24:09.966Z,67.68
2023-08-27T01:29:24.891Z,67.70
2023-08-27T01:34:31.392Z,67.60
2023-08-27T01:39:37.836Z,67.65
2023-08-27T01:44:43.441Z,67.79
2023-08-27T01:49:49.117Z,67.91
2023-08-27T01:54:54.575Z,67.82
2023-08-27T02:00:00.361Z,67.92
2023-08-27T02:05:07.289Z,68.04
2023-08-27T02:10:13.136Z,68.16
2023-08-27T02:15:19.894Z,68.23
2023-08-27T02:20:25.660Z,68.28
2023-08-27T02:25:31.298Z,68.33
2023-08-27T02:30:36.882Z,68.44
2023-08-27T02:35:42.429Z,68.47
2023-08-27T02:40:47.979Z,68.42
2023-08-27T02:45:53.626Z,68.46
2023-08-27T02:50:59.460Z,68.69
2023-08-27T02:56:05.381Z,68.67
2023-08-27T03:01:11.181Z,68.68
2023-08-27T03:06:16.878Z,68.73
2023-08-27T03:11:22.677Z,68.82
2023-08-27T03:16:28.309Z,68.71
2023-08-27T03:21:33.976Z,68.76
2023-08-27T03:26:39.555Z,68.77
2023-08-27T03:31:45.208Z,69.11
2023-08-27T03:36:50.671Z,69.18
2023-08-27T03:41:56.143Z,69.21
2023-08-27T03:47:01.758Z,69.28
2023-08-27T03:52:07.782Z,69.38
2023-08-27T03:57:14.382Z,69.65
2023-08-27T04:02:19.965Z,69.54
2023-08-27T04:07:25.828Z,69.76
2023-08-27T04:12:31.481Z,69.83
2023-08-27T04:17:37.146Z,69.76
2023-08-27T04:22:42.828Z,69.90
2023-08-27T04:27:48.344Z,69.92
2023-08-27T04:32:54.294Z,69.89
2023-08-27T04:37:59.888Z,69.86
2023-08-27T04:43:05.652Z,69.84
2023-08-27T04:48:11.293Z,69.78
2023-08-27T04:53:17.641Z,69.77
2023-08-27T04:58:23.165Z,69.94
2023-08-27T05:03:32.200Z,70.13
2023-08-27T05:08:37.907Z,70.22
2023-08-27T05:13:44.517Z,70.25
2023-08-27T05:18:50.355Z,70.37
2023-08-27T05:23:56.099Z,70.27
2023-08-27T05:29:01.625Z,70.45
2023-08-27T05:34:08.101Z,70.62
2023-08-27T05:39:15.313Z,70.55
2023-08-27T05:44:21.878Z,70.48
2023-08-27T05:49:27.514Z,70.42
2023-08-27T05:54:33.102Z,70.60
2023-08-27T05:59:38.717Z,70.58
2023-08-27T06:04:44.336Z,70.70
2023-08-27T06:09:49.829Z,70.76
2023-08-27T06:14:55.554Z,70.89
2023-08-27T06:20:01.435Z,70.95
2023-08-27T06:25:08.661Z,70.95
2023-08-27T06:30:28.015Z,71.02
2023-08-27T06:35:35.759Z,70.85
2023-08-27T06:40:41.439Z,70.68
2023-08-27T06:45:47.127Z,70.80
2023-08-27T06:50:53.645Z,70.80
2023-08-27T06:55:59.230Z,70.63
2023-08-27T07:01:06.234Z,70.58
2023-08-27T07:06:12.176Z,70.66
2023-08-27T07:11:18.650Z,70.58
2023-08-27T07:16:24.293Z,70.25
2023-08-27T07:21:29.968Z,70.40
2023-08-27T07:26:37.383Z,70.49
2023-08-27T07:31:43.158Z,70.66
2023-08-27T07:36:48.760Z,70.55
2023-08-27T07:41:54.317Z,70.36
2023-08-27T07:47:00.920Z,70.05
2023-08-27T07:52:07.873Z,69.72
2023-08-27T07:57:14.156Z,69.27
2023-08-27T08:02:20.326Z,68.79
2023-08-27T08:07:26.880Z,68.73
2023-08-27T08:12:32.855Z,68.65
2023-08-27T08:17:45.366Z,68.86
2023-08-27T08:22:51.263Z,69.03
2023-08-27T08:27:56.872Z,69.00
2023-08-27T08:33:02.598Z,68.15
2023-08-27T08:38:08.197Z,67.38
2023-08-27T08:43:18.621Z,67.35
2023-08-27T08:48:27.009Z,67.37
2023-08-27T08:53:33.670Z,67.40
2023-08-27T08:58:40.131Z,67.49
2023-08-27T09:03:47.449Z,67.59
2023-08-27T09:08:54.105Z,67.53
2023-08-27T09:13:59.760Z,67.43
2023-08-27T09:19:05.570Z,67.28
2023-08-27T09:24:11.573Z,67.30
2023-08-27T09:29:18.017Z,67.25
2023-08-27T09:34:23.463Z,67.19
2023-08-27T09:39:28.992Z,67.18
2023-08-27T09:44:34.705Z,67.17
2023-08-27T09:49:42.583Z,66.96
2023-08-27T09:54:48.159Z,66.93
2023-08-27T09:59:55.008Z,66.85
2023-08-27T10:05:00.581Z,66.78
2023-08-27T10:10:07.816Z,66.85
2023-08-27T10:15:13.666Z,66.90
2023-08-27T10:20:19.382Z,66.99
2023-08-27T10:25:25.624Z,66.91
2023-08-27T10:30:32.876Z,66.63
2023-08-27T10:35:41.032Z,66.47
2023-08-27T10:40:47.483Z,66.35
2023-08-27T10:45:53.336Z,66.20
2023-08-27T10:51:10.446Z,66.13
2023-08-27T10:56:35.589Z,66.02
2023-08-27T11:02:01.110Z,65.85
2023-08-27T11:07:11.522Z,65.73
2023-08-27T11:12:24.857Z,65.69
2023-08-27T11:17:31.129Z,65.70
2023-08-27T11:22:36.904Z,65.59
2023-08-27T11:27:42.525Z,65.51
2023-08-27T11:32:48.898Z,65.58
2023-08-27T11:37:54.725Z,65.54
2023-08-27T11:43:00.261Z,65.34
2023-08-27T11:48:06.983Z,65.18
2023-08-27T11:53:13.242Z,65.11
2023-08-27T11:58:19.426Z,65.08
2023-08-27T12:03:25.137Z,64.95
2023-08-27T12:08:35.819Z,64.76
2023-08-27T12:13:44.005Z,64.79
2023-08-27T12:18:49.773Z,64.92
2023-08-27T12:23:55.388Z,64.92
2023-08-27T12:29:01.686Z,64.80
2023-08-27T12:34:07.478Z,64.69
2023-08-27T12:39:14.320Z,64.62
2023-08-27T12:44:22.961Z,64.47
2023-08-27T12:49:29.005Z,64.29
2023-08-27T12:54:35.720Z,64.17
2023-08-27T12:59:41.726Z,64.22
2023-08-27T13:04:47.321Z,64.19
2023-08-27T13:09:53.017Z,64.02
2023-08-27T13:14:58.542Z,63.88
2023-08-27T13:20:05.265Z,63.97
2023-08-27T13:25:13.007Z,64.05
2023-08-27T13:30:18.491Z,64.18
2023-08-27T13:35:24.199Z,64.25
2023-08-27T13:40:30.187Z,64.27
2023-08-27T13:45:35.706Z,64.29
2023-08-27T13:50:42.003Z,64.22
2023-08-27T13:55:47.552Z,64.29
2023-08-27T14:00:53.124Z,64.34
2023-08-27T14:05:59.261Z,64.37
2023-08-27T14:11:05.163Z,64.39
2023-08-27T14:16:10.841Z,64.41
2023-08-27T14:21:17.751Z,64.30
2023-08-27T14:26:23.298Z,64.30
2023-08-27T14:31:28.841Z,64.19
2023-08-27T14:36:34.610Z,64.20
2023-08-27T14:41:40.234Z,64.07
2023-08-27T14:46:45.878Z,64.09
2023-08-27T14:51:51.413Z,64.09
2023-08-27T14:56:56.941Z,64.15
2023-08-27T15:02:02.612Z,64.27
2023-08-27T15:07:08.774Z,64.45
2023-08-27T15:12:18.588Z,64.48
2023-08-27T15:17:24.245Z,64.54
2023-08-27T15:22:30.302Z,64.60
2023-08-27T15:27:38.288Z,64.82
2023-08-27T15:32:43.945Z,64.80
2023-08-27T15:37:49.721Z,65.03
2023-08-27T15:43:08.629Z,65.20
2023-08-27T15:48:14.220Z,65.17
2023-08-27T15:53:19.817Z,65.34
2023-08-27T15:58:26.080Z,65.59
2023-08-27T16:03:31.705Z,65.67
2023-08-27T16:08:37.421Z,65.91
2023-08-27T16:13:43.070Z,66.00
2023-08-27T16:18:48.683Z,66.23
2023-08-27T16:23:54.123Z,66.41
2023-08-27T16:28:59.788Z,66.70
2023-08-27T16:34:05.646Z,66.86
2023-08-27T16:39:11.303Z,67.05
2023-08-27T16:44:16.894Z,67.24
2023-08-27T16:49:22.450Z,67.48
2023-08-27T16:54:28.202Z,67.68
2023-08-27T16:59:35.258Z,67.75
2023-08-27T17:04:40.938Z,67.99
2023-08-27T17:09:46.624Z,68.15
2023-08-27T17:14:52.330Z,68.22
2023-08-27T17:20:04.157Z,68.31
2023-08-27T17:25:10.330Z,68.35
2023-08-27T17:30:16.125Z,68.60
2023-08-27T17:35:21.820Z,68.72
2023-08-27T17:40:27.719Z,68.75
2023-08-27T17:45:40.301Z,68.91
2023-08-27T17:50:47.578Z,69.01
2023-08-27T17:55:54.664Z,69.18
2023-08-27T18:01:01.514Z,69.22
2023-08-27T18:06:08.467Z,69.56
2023-08-27T18:11:14.117Z,69.72
2023-08-27T18:16:19.664Z,69.93
2023-08-27T18:21:25.375Z,70.13
2023-08-27T18:32:04.747Z,70.49
2023-08-27T18:37:10.239Z,70.69
2023-08-27T18:42:27.575Z,70.74
2023-08-27T18:47:37.642Z,71.01
2023-08-27T18:52:43.403Z,71.29
2023-08-27T18:57:52.346Z,71.38
2023-08-27T19:02:59.447Z,71.62
2023-08-27T19:08:05.626Z,71.66
2023-08-27T19:13:12.592Z,71.73
2023-08-27T19:18:18.436Z,71.81
2023-08-27T19:23:24.891Z,72.06
2023-08-27T19:28:32.946Z,72.15
2023-08-27T19:33:40.445Z,72.30
2023-08-27T19:38:46.446Z,72.41
2023-08-27T19:43:52.273Z,72.47
2023-08-27T19:48:58.105Z,72.50
2023-08-27T19:54:03.834Z,72.52
2023-08-27T19:59:09.445Z,72.62
2023-08-27T20:04:15.230Z,72.84
2023-08-27T20:09:22.202Z,72.93
2023-08-27T20:14:27.719Z,72.90
2023-08-27T20:19:33.210Z,73.03
2023-08-27T20:24:38.818Z,73.02
2023-08-27T20:29:44.369Z,73.06
2023-08-27T20:34:50.020Z,73.08
2023-08-27T20:39:56.799Z,73.25
2023-08-27T20:45:05.154Z,73.21
2023-08-27T20:50:11.292Z,73.37
2023-08-27T20:55:17.202Z,73.44
2023-08-27T21:00:23.190Z,73.44
2023-08-27T21:05:29.305Z,73.35
2023-08-27T21:10:35.082Z,73.31
2023-08-27T21:15:41.151Z,73.46
2023-08-27T21:20:46.690Z,73.55
2023-08-27T21:25:52.627Z,73.60
2023-08-27T21:31:12.744Z,73.64
2023-08-27T21:36:25.186Z,73.82
2023-08-27T21:41:30.943Z,73.76
2023-08-27T21:46:36.615Z,73.96
2023-08-27T21:51:42.262Z,73.80
2023-08-27T21:56:47.886Z,73.86
2023-08-27T22:01:53.542Z,74.06
2023-08-27T22:06:59.146Z,74.01
2023-08-27T22:12:04.966Z,74.12
2023-08-27T22:17:10.654Z,74.18
2023-08-27T22:22:16.466Z,74.23
2023-08-27T22:27:22.193Z,74.30
2023-08-27T22:32:27.711Z,74.44
2023-08-27T22:37:33.257Z,74.25
2023-08-27T22:42:39.409Z,74.35
2023-08-27T22:47:45.161Z,74.36
2023-08-27T22:52:50.696Z,74.36
2023-08-27T22:57:56.215Z,74.37
2023-08-27T23:03:01.910Z,74.40
2023-08-27T23:08:08.702Z,74.60
2023-08-27T23:13:14.327Z,74.61
2023-08-27T23:18:20.121Z,74.61
2023-08-27T23:23:26.080Z,74.52
2023-08-27T23:28:31.612Z,74.67
2023-08-27T23:33:37.124Z,74.64
2023-08-27T23:38:42.673Z,74.77
2023-08-27T23:43:48.417Z,74.71
2023-08-27T23:48:54.067Z,74.84
2023-08-27T23:53:59.581Z,74.94
2023-08-27T23:59:05.169Z,74.90
